< Typhoon 199225 1992 Season Typhoon 199227 >
Typhoon 199226 (COLLEEN)
General InformationTrack Information on Google MapsDetailed Wind InformationList of All Images || Disaster Info.ResourceGoogle EarthGE AnimationAtom FeedGeoJSON
Detalied Best Track (Time Zone = UTC)
Year Month Day Hour Lat. Long. Pressure (hPa) Wind (kt) Class Image Chart
1992 10 17 18 11.0 133.5 1004 0 2 Image Chart
1992 10 18 00 11.0 132.5 1004 0 2 Image Chart
1992 10 18 06 11.5 132.0 1002 0 2 Image Chart
1992 10 18 12 12.0 131.5 1002 0 2 Image Chart
1992 10 18 18 12.5 130.7 998 35 3 Image Chart
1992 10 19 00 12.8 130.0 994 35 3 Image Chart
1992 10 19 06 13.2 129.7 994 35 3 Image Chart
1992 10 19 12 13.5 129.5 990 45 3 Image Chart
1992 10 19 18 13.8 129.6 990 45 3 Image Chart
1992 10 20 00 14.1 129.7 990 45 3 Image Chart
1992 10 20 06 14.5 130.0 985 50 4 Image Chart
1992 10 20 12 14.5 130.2 985 50 4 Image Chart
1992 10 20 18 14.1 129.9 980 55 4 Image Chart
1992 10 21 00 13.7 130.0 980 55 4 Image Chart
1992 10 21 06 13.8 130.3 980 55 4 Image Chart
1992 10 21 12 14.0 130.5 980 55 4 Image Chart
1992 10 21 18 14.0 130.5 980 55 4 Image Chart
1992 10 22 00 13.8 130.7 980 55 4 Image Chart
1992 10 22 06 13.1 130.8 980 55 4 Image Chart
1992 10 22 12 13.0 130.9 980 55 4 Image Chart
1992 10 22 18 13.0 130.5 980 55 4 Image Chart
1992 10 23 00 13.1 130.0 980 55 4 Image Chart
1992 10 23 06 13.4 129.8 980 55 4 Image Chart
1992 10 23 12 13.8 129.8 985 50 4 Image Chart
1992 10 23 18 14.3 129.8 985 50 4 Image Chart
1992 10 24 00 15.0 129.9 990 45 3 Image Chart
1992 10 24 06 15.7 129.5 990 45 3 Image Chart
1992 10 24 12 15.9 129.1 990 45 3 Image Chart
1992 10 24 18 15.8 128.4 985 50 4 Image Chart
1992 10 25 00 15.3 127.1 985 50 4 Image Chart
1992 10 25 06 15.1 125.6 980 55 4 Image Chart
1992 10 25 12 15.1 124.0 980 55 4 Image Chart
1992 10 25 18 15.1 122.3 980 55 4 Image Chart
1992 10 26 00 15.0 121.0 980 55 4 Image Chart
1992 10 26 06 14.6 119.5 985 50 4 Image Chart
1992 10 26 12 14.4 118.0 985 50 4 Image Chart
1992 10 26 18 14.1 116.4 985 50 4 Image Chart
1992 10 27 00 13.7 114.5 980 55 4 Image Chart
1992 10 27 06 13.4 113.0 980 55 4 Image Chart
1992 10 27 12 13.5 111.9 980 55 4 Image Chart
1992 10 27 18 14.1 110.7 985 50 4 Image Chart
1992 10 28 00 14.3 109.7 985 50 4 Image Chart
1992 10 28 06 14.4 108.7 990 45 3 Image Chart
1992 10 28 12 14.5 107.7 994 35 3 Image Chart
1992 10 28 18 14.5 106.5 998 0 2 Image Chart
1992 10 29 00 14.5 105.6 1002 0 2 Image Chart
1992 10 29 06 14.4 105.2 1004 0 2 Image Chart
1992 10 29 12 14.3 105.0 1004 0 2 Image Chart
Japan Meteorological Agency Best Track Data | Correction Date : 1992-12-25
< Typhoon 199225 1992 Season Typhoon 199227 >

Help